Andersonville, Tennessee
Current Conditions -  °F | °C
As of 5:53 PM on Thursday 23 Oct 2014 (Local Time) from KOQT Reporting Station
Clear Clear  
Wind Chill: 62°   Ceiling: Unl
Heat Index: 62°   Visibility: 10mi
Dew Point: 42°   Wind: 3mph
Humidity: 48%   Direction: 70°ENE
Pressure: 30.11"   Gusts: NA
Location:  36.2°N, 84.04°W
Report Text: KOQT 232153Z AUTO 07003KT 10SM CLR 17/06 A3011 RMK AO2 SLP194 T01670056
Loading
Personal Weather Stations






























Interactive Weather Map New forecast layout! Learn more

10-Day Weather Forecast

Advertisements
Track Severe Weather on mobile